createdAt,value
2022-08-03T00:01:48.346Z,4.23
2022-08-03T00:04:14.748Z,4.17
2022-08-03T00:06:41.286Z,4.73
2022-08-03T00:09:08.170Z,4.93
2022-08-03T00:11:35.172Z,4.60
2022-08-03T00:14:01.691Z,4.53
2022-08-03T00:16:28.237Z,4.43
2022-08-03T00:18:54.604Z,4.77
2022-08-03T00:21:21.074Z,4.37
2022-08-03T00:23:51.773Z,5.13
2022-08-03T00:26:19.776Z,4.93
2022-08-03T00:28:46.135Z,4.73
2022-08-03T00:31:13.543Z,4.83
2022-08-03T00:33:59.567Z,4.50
2022-08-03T00:36:27.528Z,4.83
2022-08-03T00:38:54.010Z,5.00
2022-08-03T00:41:20.368Z,5.07
2022-08-03T00:43:47.432Z,5.40
2022-08-03T00:46:18.983Z,5.17
2022-08-03T00:48:48.998Z,4.73
2022-08-03T00:51:15.511Z,5.30
2022-08-03T00:53:41.912Z,5.27
2022-08-03T00:56:08.351Z,5.17
2022-08-03T00:58:34.764Z,5.20
2022-08-03T01:01:01.267Z,5.00
2022-08-03T01:03:27.705Z,5.07
2022-08-03T01:06:20.329Z,5.20
2022-08-03T01:09:02.629Z,5.10
2022-08-03T01:12:00.457Z,4.67
2022-08-03T01:14:35.796Z,4.97
2022-08-03T01:17:14.822Z,4.97
2022-08-03T01:19:59.440Z,4.60
2022-08-03T01:22:49.980Z,4.80
2022-08-03T01:25:36.299Z,4.80
2022-08-03T01:28:12.992Z,5.07
2022-08-03T01:30:43.637Z,4.90
2022-08-03T01:33:14.843Z,4.40
2022-08-03T01:35:50.946Z,4.70
2022-08-03T01:38:34.333Z,4.93
2022-08-03T01:41:12.084Z,4.60
2022-08-03T01:44:26.732Z,4.90
2022-08-03T01:46:31.200Z,5.10
2022-08-03T01:49:00.007Z,4.90
2022-08-03T01:52:03.584Z,4.23
2022-08-03T01:54:16.598Z,4.90
2022-08-03T01:56:44.395Z,4.70
2022-08-03T01:59:12.543Z,4.43
2022-08-03T02:02:27.972Z,4.63
2022-08-03T02:04:28.003Z,5.40
2022-08-03T02:07:02.791Z,4.87
2022-08-03T02:09:31.741Z,5.53
2022-08-03T02:11:58.993Z,5.00
2022-08-03T02:14:26.739Z,4.77
2022-08-03T02:16:55.025Z,5.10
2022-08-03T02:19:23.169Z,4.80
2022-08-03T02:21:56.559Z,4.73
2022-08-03T02:24:27.805Z,4.70
2022-08-03T02:26:56.172Z,4.73
2022-08-03T02:29:39.515Z,5.20
2022-08-03T02:32:12.046Z,4.77
2022-08-03T02:34:40.287Z,4.60
2022-08-03T02:37:08.485Z,4.67
2022-08-03T02:39:36.751Z,5.10
2022-08-03T02:42:03.669Z,5.20
2022-08-03T02:44:33.514Z,5.00
2022-08-03T02:47:07.384Z,5.20
2022-08-03T02:49:51.252Z,5.03
2022-08-03T02:52:21.459Z,4.60
2022-08-03T02:54:51.054Z,4.53
2022-08-03T02:57:19.384Z,5.10
2022-08-03T02:59:46.086Z,4.60
2022-08-03T03:02:14.992Z,5.40
2022-08-03T03:05:53.458Z,4.60
2022-08-03T03:07:29.921Z,5.37
2022-08-03T03:10:02.401Z,4.57
2022-08-03T03:12:31.070Z,4.80
2022-08-03T03:14:57.731Z,4.30
2022-08-03T03:17:24.528Z,4.87
2022-08-03T03:19:52.378Z,5.53
2022-08-03T03:22:19.358Z,4.43
2022-08-03T03:24:47.840Z,4.90
2022-08-03T03:27:16.831Z,4.40
2022-08-03T03:29:43.806Z,5.37
2022-08-03T03:32:10.533Z,5.00
2022-08-03T03:34:37.453Z,4.60
2022-08-03T03:37:05.017Z,4.57
2022-08-03T03:39:31.721Z,4.90
2022-08-03T03:41:58.408Z,4.70
2022-08-03T03:44:33.587Z,5.13
2022-08-03T03:47:00.279Z,5.23
2022-08-03T03:49:27.216Z,5.30
2022-08-03T03:51:54.927Z,4.50
2022-08-03T03:54:21.749Z,5.00
2022-08-03T03:56:52.113Z,5.20
2022-08-03T03:59:18.676Z,4.80
2022-08-03T04:01:45.596Z,4.70
2022-08-03T04:04:30.465Z,4.93
2022-08-03T04:07:15.294Z,5.50
2022-08-03T04:10:14.406Z,5.00
2022-08-03T04:12:50.279Z,4.37
2022-08-03T04:15:20.899Z,4.80
2022-08-03T04:17:50.665Z,5.10
2022-08-03T04:20:19.565Z,4.93
2022-08-03T04:22:48.041Z,4.97
2022-08-03T04:25:19.267Z,5.10
2022-08-03T04:28:07.697Z,4.73
2022-08-03T04:30:38.627Z,4.40
2022-08-03T04:33:06.235Z,5.60
2022-08-03T04:36:01.070Z,5.30
2022-08-03T04:38:23.441Z,4.60
2022-08-03T04:40:50.618Z,5.00
2022-08-03T04:43:18.486Z,4.67
2022-08-03T04:45:47.824Z,5.00
2022-08-03T04:48:15.285Z,5.00
2022-08-03T04:50:42.824Z,4.60
2022-08-03T04:53:09.329Z,5.00
2022-08-03T04:55:36.459Z,4.83
2022-08-03T04:58:03.883Z,4.80
2022-08-03T05:00:31.866Z,4.33
2022-08-03T05:02:58.330Z,4.37
2022-08-03T05:05:24.997Z,4.37
2022-08-03T05:07:51.517Z,4.90
2022-08-03T05:10:19.533Z,4.37
2022-08-03T05:12:47.725Z,5.20
2022-08-03T05:15:15.721Z,5.27
2022-08-03T05:17:42.667Z,4.80
2022-08-03T05:20:10.033Z,4.47
2022-08-03T05:22:36.453Z,5.10
2022-08-03T05:25:04.045Z,5.03
2022-08-03T05:27:30.526Z,5.17
2022-08-03T05:29:56.950Z,5.43
2022-08-03T05:32:43.429Z,4.87
2022-08-03T05:35:55.727Z,5.13
2022-08-03T05:37:56.614Z,4.83
2022-08-03T05:40:22.977Z,5.40
2022-08-03T05:42:49.813Z,5.07
2022-08-03T05:45:18.365Z,5.00
2022-08-03T05:47:45.409Z,5.57
2022-08-03T05:50:12.726Z,5.60
2022-08-03T05:52:40.173Z,5.10
2022-08-03T05:55:07.826Z,5.70
2022-08-03T05:57:34.553Z,5.00
2022-08-03T06:00:07.083Z,5.50
2022-08-03T06:02:34.259Z,5.83
2022-08-03T06:05:00.793Z,5.33
2022-08-03T06:07:27.153Z,5.07
2022-08-03T06:10:34.008Z,4.90
2022-08-03T06:12:41.296Z,5.67
2022-08-03T06:15:08.244Z,5.13
2022-08-03T06:17:45.697Z,5.10
2022-08-03T06:20:12.490Z,5.13
2022-08-03T06:22:50.864Z,5.40
2022-08-03T06:25:25.964Z,5.30
2022-08-03T06:27:52.359Z,4.20
2022-08-03T06:30:21.301Z,4.70
2022-08-03T06:32:52.207Z,4.50
2022-08-03T06:35:19.132Z,5.27
2022-08-03T06:37:47.022Z,5.00
2022-08-03T06:40:15.802Z,4.90
2022-08-03T06:42:48.270Z,4.70
2022-08-03T06:45:16.764Z,5.37
2022-08-03T06:47:44.585Z,4.53
2022-08-03T06:50:17.067Z,5.10
2022-08-03T06:52:44.503Z,5.00
2022-08-03T06:55:11.436Z,5.00
2022-08-03T06:57:37.810Z,6.13
2022-08-03T07:00:08.178Z,5.20
2022-08-03T07:02:38.428Z,5.70
2022-08-03T07:05:05.973Z,5.93
2022-08-03T07:07:32.367Z,5.10
2022-08-03T07:09:58.811Z,5.87
2022-08-03T07:12:29.814Z,6.33
2022-08-03T07:15:00.658Z,5.03
2022-08-03T07:17:28.191Z,5.97
2022-08-03T07:19:54.532Z,5.90
2022-08-03T07:22:20.906Z,6.27
2022-08-03T07:24:47.729Z,5.47
2022-08-03T07:27:16.213Z,5.53
2022-08-03T07:29:42.625Z,5.70
2022-08-03T07:32:09.310Z,5.87
2022-08-03T07:34:35.791Z,5.63
2022-08-03T07:37:02.248Z,5.13
2022-08-03T07:39:28.630Z,5.70
2022-08-03T07:41:55.008Z,5.47
2022-08-03T07:44:21.533Z,5.90
2022-08-03T07:46:47.954Z,5.70
2022-08-03T07:49:14.486Z,5.43
2022-08-03T07:51:41.042Z,5.37
2022-08-03T07:54:07.757Z,5.10
2022-08-03T07:56:34.157Z,4.77
2022-08-03T07:59:00.547Z,5.13
2022-08-03T08:01:26.998Z,4.50
2022-08-03T08:03:53.812Z,4.90
2022-08-03T08:06:21.119Z,4.87
2022-08-03T08:08:48.150Z,5.57
2022-08-03T08:11:14.809Z,4.90
2022-08-03T08:13:41.243Z,5.27
2022-08-03T08:16:07.772Z,4.90
2022-08-03T08:18:34.456Z,4.67
2022-08-03T08:21:01.660Z,4.63
2022-08-03T08:23:42.353Z,5.40
2022-08-03T08:26:11.704Z,5.13
2022-08-03T08:28:38.392Z,5.03
2022-08-03T08:31:05.536Z,4.93
2022-08-03T08:34:03.629Z,4.83
2022-08-03T08:36:19.775Z,5.23
2022-08-03T08:38:46.514Z,4.53
2022-08-03T08:41:14.924Z,5.60
2022-08-03T08:43:42.342Z,5.30
2022-08-03T08:46:23.273Z,4.87
2022-08-03T08:48:51.669Z,4.93
2022-08-03T08:51:20.425Z,4.53
2022-08-03T08:53:51.529Z,5.10
2022-08-03T08:56:19.968Z,4.07
2022-08-03T08:58:54.853Z,3.90
2022-08-03T09:01:21.869Z,4.20
2022-08-03T09:03:49.277Z,5.00
2022-08-03T09:06:16.887Z,5.10
2022-08-03T09:08:43.222Z,4.23
2022-08-03T09:11:09.665Z,4.10
2022-08-03T09:13:38.871Z,3.97
2022-08-03T09:16:20.212Z,4.47
2022-08-03T09:18:51.563Z,4.30
2022-08-03T09:21:33.663Z,4.57
2022-08-03T09:24:05.143Z,4.53
2022-08-03T09:26:34.888Z,4.23
2022-08-03T09:29:14.350Z,4.67
2022-08-03T09:31:46.473Z,4.37
2022-08-03T09:34:15.053Z,4.33
2022-08-03T09:36:43.079Z,3.83
2022-08-03T09:39:41.295Z,3.40
2022-08-03T09:42:11.458Z,3.57
2022-08-03T09:44:44.341Z,3.97
2022-08-03T09:47:13.240Z,3.43
2022-08-03T09:49:41.894Z,3.43
2022-08-03T09:52:38.063Z,4.00
2022-08-03T09:55:23.816Z,3.90
2022-08-03T09:58:06.848Z,3.30
2022-08-03T10:00:51.986Z,4.00
2022-08-03T10:03:18.402Z,3.90
2022-08-03T10:05:45.280Z,3.73
2022-08-03T10:08:16.319Z,3.87
2022-08-03T10:10:44.565Z,4.47
2022-08-03T10:13:15.474Z,4.07
2022-08-03T10:16:23.237Z,3.97
2022-08-03T10:18:28.253Z,4.20
2022-08-03T10:21:03.084Z,3.73
2022-08-03T10:23:34.197Z,4.33
2022-08-03T10:26:03.941Z,3.90
2022-08-03T10:28:45.031Z,4.03
2022-08-03T10:31:14.188Z,3.93
2022-08-03T10:33:52.782Z,4.00
2022-08-03T10:36:23.629Z,4.70
2022-08-03T10:38:53.098Z,4.20
2022-08-03T10:41:26.319Z,4.80
2022-08-03T10:44:04.247Z,4.77
2022-08-03T10:46:33.238Z,3.53
2022-08-03T10:49:00.236Z,3.40
2022-08-03T10:51:31.821Z,3.83
2022-08-03T10:53:59.671Z,3.63
2022-08-03T10:56:53.390Z,3.90
2022-08-03T10:59:46.720Z,3.77
2022-08-03T11:02:14.395Z,3.73
2022-08-03T11:04:41.968Z,4.10
2022-08-03T11:07:17.548Z,3.50
2022-08-03T11:09:52.286Z,2.87
2022-08-03T11:12:28.415Z,3.37
2022-08-03T11:15:00.347Z,3.27
2022-08-03T11:17:26.914Z,3.13
2022-08-03T11:19:57.466Z,2.80
2022-08-03T11:22:25.341Z,3.20
2022-08-03T11:24:54.157Z,3.30
2022-08-03T11:27:35.869Z,3.37
2022-08-03T11:30:09.415Z,2.63
2022-08-03T11:32:46.483Z,3.30
2022-08-03T11:35:17.315Z,3.13
2022-08-03T11:38:05.549Z,3.40
2022-08-03T11:40:52.714Z,3.60
2022-08-03T11:43:22.074Z,3.63
2022-08-03T11:46:02.037Z,3.70
2022-08-03T11:48:34.828Z,3.30
2022-08-03T11:51:02.413Z,3.73
2022-08-03T11:53:29.124Z,3.30
2022-08-03T11:55:59.622Z,3.57
2022-08-03T11:59:12.893Z,3.57
2022-08-03T12:01:12.869Z,3.63
2022-08-03T12:03:39.318Z,3.77
2022-08-03T12:06:10.697Z,3.50
2022-08-03T12:08:37.356Z,3.70
2022-08-03T12:11:06.617Z,3.67
2022-08-03T12:14:44.636Z,3.60
2022-08-03T12:16:37.557Z,4.00
2022-08-03T12:19:06.730Z,3.40
2022-08-03T12:21:33.482Z,3.73
2022-08-03T12:24:05.043Z,3.80
2022-08-03T12:26:45.192Z,3.90
2022-08-03T12:29:26.236Z,3.90
2022-08-03T12:31:52.681Z,3.67
2022-08-03T12:34:19.057Z,3.70
2022-08-03T12:36:55.924Z,3.57
2022-08-03T12:39:27.776Z,4.10
2022-08-03T12:41:55.584Z,4.03
2022-08-03T12:44:35.469Z,3.90
2022-08-03T12:47:03.458Z,3.50
2022-08-03T12:49:52.015Z,3.93
2022-08-03T12:52:21.181Z,3.50
2022-08-03T12:54:57.985Z,3.50
2022-08-03T12:57:24.768Z,3.40
2022-08-03T12:59:55.513Z,3.30
2022-08-03T13:02:24.661Z,4.20
2022-08-03T13:04:53.198Z,3.63
2022-08-03T13:07:20.599Z,3.67
2022-08-03T13:09:55.699Z,4.17
2022-08-03T13:12:24.520Z,3.70
2022-08-03T13:14:59.090Z,3.50
2022-08-03T13:17:26.770Z,3.50
2022-08-03T13:19:53.657Z,4.10
2022-08-03T13:22:30.695Z,3.37
2022-08-03T13:24:58.061Z,3.37
2022-08-03T13:28:04.795Z,3.83
2022-08-03T13:30:12.218Z,3.23
2022-08-03T13:32:39.097Z,3.27
2022-08-03T13:35:06.573Z,3.33
2022-08-03T13:37:33.211Z,3.53
2022-08-03T13:40:02.433Z,3.53
2022-08-03T13:42:30.872Z,3.57
2022-08-03T13:44:57.490Z,3.60
2022-08-03T13:47:23.902Z,3.23
2022-08-03T13:49:59.493Z,3.50
2022-08-03T13:52:28.909Z,3.70
2022-08-03T13:54:55.318Z,3.40
2022-08-03T13:58:03.454Z,3.47
2022-08-03T14:00:08.942Z,3.60
2022-08-03T14:02:35.450Z,3.70
2022-08-03T14:05:01.883Z,3.80
2022-08-03T14:07:28.257Z,3.70
2022-08-03T14:09:54.613Z,4.10
2022-08-03T14:12:21.004Z,3.57
2022-08-03T14:14:47.398Z,3.37
2022-08-03T14:17:13.744Z,3.77
2022-08-03T14:19:53.523Z,3.83
2022-08-03T14:22:21.080Z,3.70
2022-08-03T14:24:47.531Z,3.50
2022-08-03T14:27:15.667Z,3.80
2022-08-03T14:29:42.017Z,3.40
2022-08-03T14:32:12.217Z,3.73
2022-08-03T14:34:39.323Z,3.53
2022-08-03T14:37:05.881Z,3.77
2022-08-03T14:42:20.337Z,3.63
2022-08-03T14:44:46.852Z,3.60
2022-08-03T14:47:13.540Z,3.63
2022-08-03T14:50:32.518Z,3.63
2022-08-03T14:52:26.288Z,3.47
2022-08-03T14:54:52.629Z,3.60
2022-08-03T14:57:19.291Z,3.57
2022-08-03T14:59:56.771Z,3.60
2022-08-03T15:02:25.044Z,3.57
2022-08-03T15:04:52.182Z,3.70
2022-08-03T15:07:19.134Z,3.50
2022-08-03T15:09:45.892Z,3.93
2022-08-03T15:12:12.335Z,3.37
2022-08-03T15:14:38.949Z,3.33
2022-08-03T15:17:05.585Z,3.70
2022-08-03T15:20:02.000Z,3.30
2022-08-03T15:22:20.771Z,3.57
2022-08-03T15:24:52.067Z,3.03
2022-08-03T15:27:18.816Z,4.00
2022-08-03T15:30:05.187Z,3.93
2022-08-03T15:32:35.197Z,3.43
2022-08-03T15:35:01.799Z,3.40
2022-08-03T15:37:28.456Z,3.60
2022-08-03T15:39:58.812Z,3.60
2022-08-03T15:42:26.840Z,3.23
2022-08-03T15:44:53.991Z,4.00
2022-08-03T15:47:21.440Z,3.40
2022-08-03T15:49:47.985Z,3.67
2022-08-03T15:52:14.362Z,3.40
2022-08-03T15:54:40.780Z,3.77
2022-08-03T15:57:07.251Z,3.73
2022-08-03T15:59:33.963Z,3.40
2022-08-03T16:02:00.469Z,3.67
2022-08-03T16:04:26.964Z,3.60
2022-08-03T16:06:53.332Z,3.60
2022-08-03T16:09:23.980Z,3.60
2022-08-03T16:12:06.218Z,3.40
2022-08-03T16:14:51.735Z,3.47
2022-08-03T16:17:20.158Z,3.63
2022-08-03T16:19:46.798Z,3.47
2022-08-03T16:22:13.393Z,3.40
2022-08-03T16:24:41.057Z,3.00
2022-08-03T16:27:12.883Z,4.17
2022-08-03T16:29:54.021Z,3.63
2022-08-03T16:32:20.440Z,3.27
2022-08-03T16:34:47.738Z,3.40
2022-08-03T16:37:37.001Z,3.10
2022-08-03T16:40:00.617Z,3.53
2022-08-03T16:42:27.100Z,3.47
2022-08-03T16:44:53.529Z,3.30
2022-08-03T16:47:22.361Z,3.00
2022-08-03T16:49:52.963Z,3.37
2022-08-03T16:52:22.026Z,3.60
2022-08-03T16:54:53.118Z,2.80
2022-08-03T16:57:56.572Z,3.23
2022-08-03T17:00:12.527Z,3.37
2022-08-03T17:03:00.609Z,3.57
2022-08-03T17:05:28.946Z,3.60
2022-08-03T17:08:12.711Z,3.10
2022-08-03T17:10:45.194Z,3.20
2022-08-03T17:13:22.051Z,3.20
2022-08-03T17:16:01.102Z,3.27
2022-08-03T17:18:34.045Z,2.77
2022-08-03T17:21:05.015Z,2.73
2022-08-03T17:23:42.598Z,2.97
2022-08-03T17:26:21.090Z,2.50
2022-08-03T17:28:56.437Z,3.23
2022-08-03T17:31:31.713Z,2.77
2022-08-03T17:34:01.105Z,2.67
2022-08-03T17:39:16.963Z,2.47
2022-08-03T17:44:38.725Z,2.53
2022-08-03T17:47:12.431Z,2.40
2022-08-03T17:49:45.538Z,2.60
2022-08-03T17:52:27.809Z,2.67
2022-08-03T17:55:57.180Z,2.40
2022-08-03T17:58:08.085Z,2.07
2022-08-03T18:00:56.359Z,2.20
2022-08-03T18:03:58.366Z,2.13
2022-08-03T18:06:31.046Z,2.63
2022-08-03T18:09:00.205Z,2.33
2022-08-03T18:11:35.361Z,2.73
2022-08-03T18:14:17.093Z,2.20
2022-08-03T18:16:55.147Z,2.20
2022-08-03T18:20:03.683Z,2.10
2022-08-03T18:22:10.089Z,2.47
2022-08-03T18:24:39.377Z,2.30
2022-08-03T18:27:08.012Z,2.33
2022-08-03T18:29:36.982Z,2.60
2022-08-03T18:32:13.331Z,2.03
2022-08-03T18:34:53.586Z,2.70
2022-08-03T18:37:25.111Z,2.60
2022-08-03T18:39:55.452Z,2.90
2022-08-03T18:42:26.304Z,2.30
2022-08-03T18:44:56.256Z,2.70
2022-08-03T18:48:11.594Z,2.40
2022-08-03T18:50:49.503Z,2.73
2022-08-03T18:54:02.143Z,2.37
2022-08-03T18:56:52.857Z,2.67
2022-08-03T18:59:30.254Z,2.50
2022-08-03T19:02:04.941Z,2.90
2022-08-03T19:07:26.273Z,2.30
2022-08-03T19:09:59.149Z,3.17
2022-08-03T19:12:39.884Z,2.70
2022-08-03T19:15:12.424Z,2.63
2022-08-03T19:17:50.065Z,2.80
2022-08-03T19:20:21.893Z,2.73
2022-08-03T19:22:51.075Z,2.70
2022-08-03T19:25:18.395Z,2.40
2022-08-03T19:27:46.959Z,2.70
2022-08-03T19:30:35.132Z,2.83
2022-08-03T19:33:11.743Z,2.80
2022-08-03T19:35:55.672Z,2.40
2022-08-03T19:38:28.348Z,2.77
2022-08-03T19:40:59.772Z,2.77
2022-08-03T19:43:52.894Z,2.40
2022-08-03T19:46:22.499Z,3.80
2022-08-03T19:48:59.420Z,2.47
2022-08-03T19:54:29.765Z,2.57
2022-08-03T19:57:00.333Z,2.50
2022-08-03T19:59:30.528Z,2.60
2022-08-03T20:01:57.313Z,2.37
2022-08-03T20:04:23.964Z,2.80
2022-08-03T20:06:52.111Z,2.57
2022-08-03T20:09:20.338Z,3.07
2022-08-03T20:11:47.831Z,2.80
2022-08-03T20:17:01.210Z,2.70
2022-08-03T20:19:32.663Z,2.87
2022-08-03T20:22:01.688Z,2.63
2022-08-03T20:24:34.372Z,2.90
2022-08-03T20:27:04.033Z,3.00
2022-08-03T20:32:25.079Z,2.87
2022-08-03T20:34:51.894Z,3.10
2022-08-03T20:37:19.389Z,3.20
2022-08-03T20:39:46.339Z,3.17
2022-08-03T20:42:21.732Z,3.30
2022-08-03T20:45:04.453Z,3.20
2022-08-03T20:47:35.722Z,3.50
2022-08-03T20:50:03.895Z,3.23
2022-08-03T20:52:33.128Z,3.20
2022-08-03T20:54:59.685Z,3.00
2022-08-03T20:57:33.198Z,3.30
2022-08-03T21:00:00.749Z,3.80
2022-08-03T21:02:30.174Z,3.63
2022-08-03T21:04:59.002Z,3.70
2022-08-03T21:08:04.378Z,3.80
2022-08-03T21:10:18.470Z,4.03
2022-08-03T21:12:54.738Z,2.50
2022-08-03T21:13:03.679Z,2.53
2022-08-03T21:13:06.984Z,2.70
2022-08-03T21:13:09.134Z,2.40
2022-08-03T21:13:09.603Z,2.53
2022-08-03T21:13:14.084Z,3.50
2022-08-03T21:16:02.466Z,3.77
2022-08-03T21:18:37.771Z,3.77
2022-08-03T21:21:06.773Z,3.53
2022-08-03T21:23:48.097Z,3.50
2022-08-03T21:26:17.270Z,3.63
2022-08-03T21:28:45.885Z,3.00
2022-08-03T21:31:13.495Z,3.50
2022-08-03T21:33:40.800Z,3.50
2022-08-03T21:36:08.249Z,3.57
2022-08-03T21:38:35.879Z,3.43
2022-08-03T21:41:03.191Z,3.17
2022-08-03T21:43:30.083Z,3.30
2022-08-03T21:46:04.836Z,3.30
2022-08-03T21:48:38.040Z,3.50
2022-08-03T21:51:06.789Z,3.20
2022-08-03T21:54:02.697Z,3.20
2022-08-03T21:56:21.541Z,4.00
2022-08-03T21:58:54.236Z,3.30
2022-08-03T22:01:24.622Z,2.90
2022-08-03T22:03:55.343Z,3.20
2022-08-03T22:06:27.638Z,3.40
2022-08-03T22:08:54.232Z,3.50
2022-08-03T22:11:21.227Z,3.40
2022-08-03T22:13:47.861Z,2.80
2022-08-03T22:16:15.210Z,2.90
2022-08-03T22:18:43.468Z,3.60
2022-08-03T22:21:11.862Z,3.27
2022-08-03T22:23:59.080Z,3.23
2022-08-03T22:26:34.654Z,3.03
2022-08-03T22:29:01.572Z,3.10
2022-08-03T22:31:30.733Z,3.47
2022-08-03T22:34:14.370Z,3.30
2022-08-03T22:36:40.933Z,3.03
2022-08-03T22:39:07.589Z,2.97
2022-08-03T22:41:34.109Z,3.40
2022-08-03T22:44:04.545Z,3.10
2022-08-03T22:46:33.821Z,3.33
2022-08-03T22:49:01.207Z,3.40
2022-08-03T22:51:27.837Z,3.47
2022-08-03T22:53:54.565Z,3.30
2022-08-03T22:56:21.456Z,3.63
2022-08-03T22:58:47.807Z,3.50
2022-08-03T23:01:19.728Z,3.50
2022-08-03T23:04:00.285Z,3.20
2022-08-03T23:06:33.618Z,3.20
2022-08-03T23:09:02.392Z,3.40
2022-08-03T23:11:28.897Z,3.70
2022-08-03T23:13:58.184Z,3.23
2022-08-03T23:16:29.701Z,3.60
2022-08-03T23:18:57.853Z,3.00
2022-08-03T23:22:00.105Z,2.83
2022-08-03T23:24:19.189Z,3.50
2022-08-03T23:26:57.169Z,3.07
2022-08-03T23:29:23.730Z,3.30
2022-08-03T23:31:53.673Z,3.87
2022-08-03T23:34:39.977Z,2.97
2022-08-03T23:37:06.546Z,3.90
2022-08-03T23:39:34.974Z,3.80
2022-08-03T23:42:02.904Z,3.23
2022-08-03T23:44:30.612Z,3.40
2022-08-03T23:46:57.234Z,3.47
2022-08-03T23:49:23.693Z,3.17
2022-08-03T23:52:27.787Z,3.20
2022-08-03T23:55:13.577Z,3.23
2022-08-03T23:57:45.889Z,3.37
